createdAt,value
2019-05-01T00:00:57.373Z,10.97
2019-05-01T00:03:45.660Z,10.70
2019-05-01T00:06:17.108Z,10.90
2019-05-01T00:08:46.452Z,11.33
2019-05-01T00:11:15.832Z,10.43
2019-05-01T00:13:45.180Z,10.80
2019-05-01T00:16:14.668Z,10.80
2019-05-01T00:18:44.040Z,10.70
2019-05-01T00:21:13.412Z,10.50
2019-05-01T00:23:42.752Z,9.67
2019-05-01T00:26:12.139Z,7.37
2019-05-01T00:28:41.485Z,8.27
2019-05-01T00:31:10.860Z,8.60
2019-05-01T00:33:40.216Z,8.93
2019-05-01T00:36:09.576Z,9.03
2019-05-01T00:38:38.918Z,9.67
2019-05-01T00:41:08.275Z,9.43
2019-05-01T00:43:37.624Z,10.00
2019-05-01T00:46:06.998Z,10.47
2019-05-01T00:48:36.351Z,10.63
2019-05-01T00:51:05.731Z,9.90
2019-05-01T00:53:35.068Z,11.60
2019-05-01T00:56:29.184Z,10.50
2019-05-01T00:59:06.701Z,9.57
2019-05-01T01:01:56.467Z,9.40
2019-05-01T01:04:26.014Z,9.97
2019-05-01T01:06:55.379Z,9.40
2019-05-01T01:09:24.732Z,8.07
2019-05-01T01:11:54.087Z,8.17
2019-05-01T01:14:23.436Z,9.00
2019-05-01T01:16:52.813Z,8.87
2019-05-01T01:19:22.156Z,7.87
2019-05-01T01:21:51.656Z,7.10
2019-05-01T01:24:20.985Z,10.03
2019-05-01T01:26:50.551Z,9.60
2019-05-01T01:29:19.930Z,8.87
2019-05-01T01:31:49.278Z,9.30
2019-05-01T01:34:18.664Z,9.73
2019-05-01T01:36:48.019Z,9.50
2019-05-01T01:39:17.379Z,9.00
2019-05-01T01:41:46.735Z,10.47
2019-05-01T01:44:50.262Z,10.87
2019-05-01T01:47:19.641Z,11.53
2019-05-01T01:49:49.085Z,10.90
2019-05-01T01:52:18.832Z,9.83
2019-05-01T01:54:48.194Z,8.60
2019-05-01T01:57:17.690Z,12.03
2019-05-01T01:59:47.364Z,12.10
2019-05-01T02:02:41.979Z,11.70
2019-05-01T02:05:23.934Z,12.27
2019-05-01T02:07:53.571Z,12.53
2019-05-01T02:10:22.917Z,12.20
2019-05-01T02:12:52.635Z,12.10
2019-05-01T02:15:22.007Z,10.77
2019-05-01T02:17:51.347Z,10.73
2019-05-01T02:20:22.192Z,11.43
2019-05-01T02:22:51.548Z,10.47
2019-05-01T02:25:21.626Z,10.10
2019-05-01T02:28:10.076Z,10.07
2019-05-01T02:30:41.210Z,9.80
2019-05-01T02:33:12.548Z,11.00
2019-05-01T02:35:43.064Z,11.37
2019-05-01T02:38:15.421Z,11.30
2019-05-01T02:40:55.309Z,11.60
2019-05-01T02:43:27.621Z,13.27
2019-05-01T02:45:59.342Z,12.30
2019-05-01T02:48:32.937Z,14.80
2019-05-01T02:51:03.886Z,13.17
2019-05-01T02:53:36.660Z,13.17
2019-05-01T02:56:26.265Z,12.10
2019-05-01T02:58:57.236Z,13.57
2019-05-01T03:01:44.628Z,12.70
2019-05-01T03:03:59.121Z,11.87
2019-05-01T03:06:31.138Z,11.67
2019-05-01T03:09:03.897Z,11.97
2019-05-01T03:11:34.044Z,10.60
2019-05-01T03:14:04.569Z,9.77
2019-05-01T03:16:35.533Z,9.30
2019-05-01T03:19:08.501Z,10.40
2019-05-01T03:21:49.203Z,9.37
2019-05-01T03:24:22.020Z,10.47
2019-05-01T03:26:51.606Z,9.20
2019-05-01T03:29:22.003Z,9.83
2019-05-01T03:32:14.043Z,10.87
2019-05-01T03:34:22.657Z,12.27
2019-05-01T03:36:52.029Z,13.27
2019-05-01T03:39:21.575Z,14.20
2019-05-01T03:41:51.052Z,16.03
2019-05-01T03:44:21.194Z,14.57
2019-05-01T03:46:50.568Z,13.53
2019-05-01T03:49:20.223Z,13.00
2019-05-01T03:51:49.679Z,13.10
2019-05-01T03:54:19.132Z,13.73
2019-05-01T03:56:48.983Z,11.57
2019-05-01T03:59:18.349Z,13.20
2019-05-01T04:02:05.597Z,13.93
2019-05-01T04:04:35.157Z,13.40
2019-05-01T04:07:04.847Z,12.60
2019-05-01T04:09:34.905Z,12.73
2019-05-01T04:12:04.505Z,12.13
2019-05-01T04:14:34.056Z,11.97
2019-05-01T04:17:10.767Z,11.37
2019-05-01T04:19:40.457Z,10.63
2019-05-01T04:22:12.518Z,11.83
2019-05-01T04:24:42.717Z,9.40
2019-05-01T04:27:17.501Z,9.43
2019-05-01T04:29:59.708Z,9.83
2019-05-01T04:32:50.019Z,9.63
2019-05-01T04:35:21.994Z,9.07
2019-05-01T04:37:53.029Z,9.10
2019-05-01T04:40:22.721Z,10.80
2019-05-01T04:42:52.130Z,11.20
2019-05-01T04:45:22.075Z,11.13
2019-05-01T04:47:52.490Z,11.37
2019-05-01T04:50:22.124Z,10.67
2019-05-01T04:52:52.224Z,11.37
2019-05-01T04:55:23.627Z,10.83
2019-05-01T04:57:53.003Z,11.67
2019-05-01T05:00:22.465Z,9.40
2019-05-01T05:03:07.672Z,10.03
2019-05-01T05:05:37.534Z,9.37
2019-05-01T05:08:07.099Z,9.47
2019-05-01T05:10:36.984Z,9.57
2019-05-01T05:13:21.789Z,12.60
2019-05-01T05:15:59.340Z,11.20
2019-05-01T05:18:28.716Z,10.40
2019-05-01T05:20:58.401Z,12.13
2019-05-01T05:23:27.974Z,12.30
2019-05-01T05:25:57.351Z,12.63
2019-05-01T05:28:26.990Z,11.23
2019-05-01T05:30:57.829Z,11.47
2019-05-01T05:33:29.475Z,13.70
2019-05-01T05:35:59.633Z,13.67
2019-05-01T05:38:42.186Z,14.50
2019-05-01T05:41:12.036Z,13.27
2019-05-01T05:43:42.081Z,12.73
2019-05-01T05:46:11.436Z,12.10
2019-05-01T05:48:41.040Z,11.40
2019-05-01T05:51:33.981Z,13.60
2019-05-01T05:54:16.288Z,13.17
2019-05-01T05:56:53.381Z,12.37
2019-05-01T05:59:27.375Z,16.30
2019-05-01T06:02:13.981Z,13.63
2019-05-01T06:05:02.454Z,12.87
2019-05-01T06:07:38.639Z,17.50
2019-05-01T06:10:18.529Z,13.27
2019-05-01T06:13:00.432Z,14.63
2019-05-01T06:15:55.016Z,14.33
2019-05-01T06:18:39.401Z,15.50
2019-05-01T06:21:26.783Z,13.40
2019-05-01T06:24:06.566Z,14.87
2019-05-01T06:26:37.811Z,16.77
2019-05-01T06:29:07.768Z,16.77
2019-05-01T06:31:37.448Z,17.27
2019-05-01T06:34:06.803Z,17.30
2019-05-01T06:36:36.500Z,12.93
2019-05-01T06:39:11.733Z,12.30
2019-05-01T06:41:44.243Z,14.53
2019-05-01T06:44:27.380Z,12.50
2019-05-01T06:47:22.396Z,13.30
2019-05-01T06:50:07.808Z,13.43
2019-05-01T06:52:38.666Z,11.40
2019-05-01T06:55:08.185Z,12.17
2019-05-01T06:57:43.676Z,12.40
2019-05-01T07:00:15.168Z,16.50
2019-05-01T07:02:45.732Z,13.50
2019-05-01T07:05:16.509Z,12.70
2019-05-01T07:07:51.478Z,14.50
2019-05-01T07:10:29.782Z,13.97
2019-05-01T07:12:49.096Z,16.70
2019-05-01T07:15:21.989Z,16.37
2019-05-01T07:17:49.907Z,14.53
2019-05-01T07:20:41.268Z,13.03
2019-05-01T07:23:12.733Z,14.33
2019-05-01T07:25:41.648Z,11.67
2019-05-01T07:28:11.031Z,13.87
2019-05-01T07:30:49.851Z,12.20
2019-05-01T07:33:20.818Z,13.00
2019-05-01T07:35:50.592Z,13.50
2019-05-01T07:38:20.069Z,12.63
2019-05-01T07:40:49.887Z,13.90
2019-05-01T07:43:38.208Z,14.23
2019-05-01T07:46:18.419Z,16.40
2019-05-01T07:48:47.425Z,14.97
2019-05-01T07:51:16.804Z,14.63
2019-05-01T07:53:46.765Z,13.60
2019-05-01T07:56:17.243Z,15.07
2019-05-01T07:58:47.497Z,16.30
2019-05-01T08:01:44.237Z,15.07
2019-05-01T08:04:13.833Z,14.07
2019-05-01T08:06:44.624Z,12.30
2019-05-01T08:09:15.212Z,11.90
2019-05-01T08:11:45.550Z,13.70
2019-05-01T08:14:16.532Z,14.93
2019-05-01T08:16:45.936Z,12.07
2019-05-01T08:19:39.454Z,14.97
2019-05-01T08:22:14.636Z,15.27
2019-05-01T08:24:44.005Z,13.90
2019-05-01T08:27:23.853Z,12.97
2019-05-01T08:30:30.271Z,14.50
2019-05-01T08:33:24.607Z,13.43
2019-05-01T08:35:53.977Z,16.23
2019-05-01T08:38:23.358Z,12.40
2019-05-01T08:40:55.430Z,13.87
2019-05-01T08:43:23.748Z,14.73
2019-05-01T08:46:11.786Z,15.33
2019-05-01T08:48:45.969Z,14.70
2019-05-01T08:51:15.352Z,12.80
2019-05-01T08:53:44.728Z,15.50
2019-05-01T08:56:17.066Z,15.10
2019-05-01T08:58:49.431Z,13.67
2019-05-01T09:01:16.398Z,13.67
2019-05-01T09:03:49.691Z,13.87
2019-05-01T09:06:16.839Z,15.43
2019-05-01T09:08:47.100Z,14.57
2019-05-01T09:11:16.453Z,14.20
2019-05-01T09:13:45.823Z,11.60
2019-05-01T09:16:15.180Z,16.10
2019-05-01T09:18:44.557Z,16.70
2019-05-01T09:21:13.917Z,14.00
2019-05-01T09:23:46.314Z,12.40
2019-05-01T09:26:33.273Z,14.70
2019-05-01T09:29:06.216Z,14.23
2019-05-01T09:31:36.198Z,12.30
2019-05-01T09:34:06.205Z,13.43
2019-05-01T09:36:35.572Z,13.50
2019-05-01T09:39:06.396Z,13.57
2019-05-01T09:41:38.320Z,11.00
2019-05-01T09:44:10.666Z,12.70
2019-05-01T09:46:37.837Z,14.20
2019-05-01T09:49:07.391Z,14.47
2019-05-01T09:52:13.876Z,13.00
2019-05-01T09:54:47.912Z,12.70
2019-05-01T09:57:17.240Z,12.33
2019-05-01T09:59:46.611Z,11.07
2019-05-01T10:02:15.968Z,13.70
2019-05-01T10:04:45.343Z,11.10
2019-05-01T10:07:14.700Z,12.87
2019-05-01T10:09:47.381Z,12.57
2019-05-01T10:12:15.100Z,11.50
2019-05-01T10:14:44.480Z,12.00
2019-05-01T10:17:13.844Z,12.43
2019-05-01T10:19:43.199Z,14.50
2019-05-01T10:22:12.590Z,10.90
2019-05-01T10:24:41.943Z,10.93
2019-05-01T10:27:17.027Z,11.33
2019-05-01T10:30:10.919Z,12.70
2019-05-01T10:32:43.334Z,15.03
2019-05-01T10:35:42.342Z,16.37
2019-05-01T10:38:09.507Z,16.23
2019-05-01T10:40:37.412Z,13.90
2019-05-01T10:43:06.773Z,12.17
2019-05-01T10:45:36.190Z,13.23
2019-05-01T10:48:05.544Z,13.73
2019-05-01T10:50:34.933Z,13.17
2019-05-01T10:53:04.300Z,13.20
2019-05-01T10:55:33.689Z,11.67
2019-05-01T10:58:03.368Z,12.07
2019-05-01T11:00:33.402Z,14.67
2019-05-01T11:03:02.777Z,14.27
2019-05-01T11:05:32.136Z,12.00
2019-05-01T11:08:01.604Z,14.10
2019-05-01T11:10:30.963Z,13.40
2019-05-01T11:13:00.340Z,13.27
2019-05-01T11:15:29.696Z,13.33
2019-05-01T11:17:59.076Z,12.50
2019-05-01T11:20:28.427Z,11.57
2019-05-01T11:22:57.810Z,12.67
2019-05-01T11:25:27.655Z,13.70
2019-05-01T11:27:57.108Z,14.30
2019-05-01T11:30:26.457Z,12.90
2019-05-01T11:33:11.055Z,11.60
2019-05-01T11:36:14.480Z,12.60
2019-05-01T11:39:08.621Z,10.53
2019-05-01T11:41:44.540Z,12.53
2019-05-01T11:44:13.927Z,13.43
2019-05-01T11:46:43.293Z,12.17
2019-05-01T11:49:12.675Z,13.20
2019-05-01T11:51:42.027Z,13.03
2019-05-01T11:54:11.410Z,12.20
2019-05-01T11:56:40.764Z,10.13
2019-05-01T11:59:10.151Z,13.33
2019-05-01T12:01:39.509Z,11.60
2019-05-01T12:04:08.897Z,13.43
2019-05-01T12:06:38.253Z,11.90
2019-05-01T12:09:07.979Z,13.67
2019-05-01T12:11:38.933Z,11.20
2019-05-01T12:14:08.305Z,12.10
2019-05-01T12:16:55.342Z,11.97
2019-05-01T12:19:25.429Z,13.37
2019-05-01T12:21:54.784Z,12.70
2019-05-01T12:24:24.175Z,13.30
2019-05-01T12:26:53.566Z,13.23
2019-05-01T12:29:22.938Z,11.73
2019-05-01T12:31:52.297Z,11.13
2019-05-01T12:34:21.679Z,11.80
2019-05-01T12:36:52.628Z,11.13
2019-05-01T12:39:22.000Z,10.63
2019-05-01T12:41:55.951Z,10.87
2019-05-01T12:44:25.340Z,12.17
2019-05-01T12:47:01.012Z,11.80
2019-05-01T12:49:30.397Z,11.43
2019-05-01T12:52:10.296Z,12.43
2019-05-01T12:54:48.231Z,11.60
2019-05-01T12:57:18.159Z,10.63
2019-05-01T12:59:47.562Z,10.73
2019-05-01T13:02:16.919Z,10.80
2019-05-01T13:04:46.287Z,12.20
2019-05-01T13:07:15.752Z,10.80
2019-05-01T13:09:45.153Z,10.47
2019-05-01T13:12:14.517Z,9.90
2019-05-01T13:14:43.870Z,9.70
2019-05-01T13:17:13.251Z,9.67
2019-05-01T13:19:42.603Z,10.27
2019-05-01T13:22:12.014Z,11.10
2019-05-01T13:24:50.263Z,11.07
2019-05-01T13:27:25.556Z,12.23
2019-05-01T13:30:12.076Z,11.60
2019-05-01T13:32:43.432Z,11.80
2019-05-01T13:35:12.917Z,11.20
2019-05-01T13:37:42.292Z,13.37
2019-05-01T13:40:12.256Z,14.17
2019-05-01T13:42:41.635Z,13.60
2019-05-01T13:45:11.410Z,13.73
2019-05-01T13:47:40.788Z,14.70
2019-05-01T13:50:10.652Z,12.10
2019-05-01T13:52:40.127Z,14.90
2019-05-01T13:55:10.101Z,13.40
2019-05-01T13:57:39.476Z,13.57
2019-05-01T14:00:10.053Z,14.10
2019-05-01T14:02:39.432Z,12.27
2019-05-01T14:05:09.688Z,13.10
2019-05-01T14:07:39.063Z,14.30
2019-05-01T14:10:08.620Z,13.77
2019-05-01T14:12:37.992Z,12.90
2019-05-01T14:15:07.649Z,13.00
2019-05-01T14:17:37.028Z,14.30
2019-05-01T14:20:25.075Z,12.67
2019-05-01T14:22:58.329Z,12.97
2019-05-01T14:25:29.343Z,12.87
2019-05-01T14:27:58.752Z,11.47
2019-05-01T14:30:28.103Z,14.30
2019-05-01T14:32:57.476Z,13.73
2019-05-01T14:35:26.846Z,14.20
2019-05-01T14:37:56.223Z,13.93
2019-05-01T14:40:25.570Z,13.57
2019-05-01T14:42:54.952Z,12.67
2019-05-01T14:45:24.361Z,12.33
2019-05-01T14:47:53.738Z,14.13
2019-05-01T14:50:23.087Z,14.27
2019-05-01T14:52:52.468Z,12.60
2019-05-01T14:55:21.828Z,11.87
2019-05-01T14:57:51.204Z,11.80
2019-05-01T15:00:21.081Z,12.73
2019-05-01T15:02:50.469Z,12.37
2019-05-01T15:05:19.837Z,12.40
2019-05-01T15:07:49.211Z,14.53
2019-05-01T15:10:18.581Z,13.50
2019-05-01T15:12:49.636Z,13.83
2019-05-01T15:15:35.485Z,12.63
2019-05-01T15:18:13.059Z,12.00
2019-05-01T15:20:42.421Z,13.37
2019-05-01T15:23:11.805Z,11.40
2019-05-01T15:25:41.164Z,12.40
2019-05-01T15:28:10.560Z,13.73
2019-05-01T15:30:39.915Z,13.67
2019-05-01T15:33:09.305Z,12.23
2019-05-01T15:35:38.716Z,13.30
2019-05-01T15:38:08.093Z,12.60
2019-05-01T15:40:43.340Z,13.17
2019-05-01T15:43:30.243Z,14.43
2019-05-01T15:46:00.100Z,14.10
2019-05-01T15:48:29.478Z,11.60
2019-05-01T15:50:58.834Z,11.83
2019-05-01T15:53:28.240Z,15.00
2019-05-01T15:55:57.607Z,16.17
2019-05-01T15:58:26.979Z,13.40
2019-05-01T16:00:56.398Z,12.23
2019-05-01T16:03:25.707Z,11.57
2019-05-01T16:05:55.119Z,10.80
2019-05-01T16:08:24.507Z,12.37
2019-05-01T16:11:03.832Z,11.30
2019-05-01T16:13:33.207Z,11.50
2019-05-01T16:16:02.561Z,9.50
2019-05-01T16:18:31.994Z,10.70
2019-05-01T16:21:01.327Z,10.27
2019-05-01T16:23:30.676Z,9.43
2019-05-01T16:26:00.088Z,12.00
2019-05-01T16:28:29.431Z,11.50
2019-05-01T16:30:58.805Z,11.90
2019-05-01T16:33:28.163Z,10.77
2019-05-01T16:35:57.543Z,10.40
2019-05-01T16:38:35.151Z,10.93
2019-05-01T16:41:07.299Z,11.10
2019-05-01T16:43:36.721Z,12.77
2019-05-01T16:46:06.601Z,10.03
2019-05-01T16:48:35.964Z,10.30
2019-05-01T16:51:05.332Z,11.53
2019-05-01T16:53:34.702Z,10.47
2019-05-01T16:56:04.192Z,10.40
2019-05-01T16:58:33.823Z,9.70
2019-05-01T17:01:07.424Z,10.60
2019-05-01T17:03:55.733Z,11.27
2019-05-01T17:06:47.293Z,11.07
2019-05-01T17:09:39.288Z,11.40
2019-05-01T17:12:10.884Z,11.17
2019-05-01T17:14:39.784Z,10.70
2019-05-01T17:17:13.528Z,10.30
2019-05-01T17:19:42.914Z,10.37
2019-05-01T17:22:14.431Z,9.00
2019-05-01T17:24:43.412Z,9.10
2019-05-01T17:27:12.803Z,9.97
2019-05-01T17:29:42.156Z,9.20
2019-05-01T17:32:13.108Z,13.20
2019-05-01T17:34:42.472Z,12.80
2019-05-01T17:37:11.851Z,13.97
2019-05-01T17:39:41.228Z,12.40
2019-05-01T17:42:10.595Z,10.87
2019-05-01T17:44:39.964Z,12.97
2019-05-01T17:47:09.346Z,11.13
2019-05-01T17:49:41.038Z,12.23
2019-05-01T17:52:09.720Z,11.83
2019-05-01T17:54:39.068Z,10.73
2019-05-01T17:57:08.483Z,11.20
2019-05-01T17:59:37.832Z,11.00
2019-05-01T18:02:32.399Z,9.47
2019-05-01T18:05:18.142Z,9.20
2019-05-01T18:07:47.516Z,8.90
2019-05-01T18:10:16.856Z,9.43
2019-05-01T18:12:46.251Z,9.30
2019-05-01T18:15:15.595Z,8.90
2019-05-01T18:17:44.963Z,8.60
2019-05-01T18:20:14.426Z,9.00
2019-05-01T18:23:01.846Z,8.07
2019-05-01T18:25:53.639Z,8.93
2019-05-01T18:28:33.584Z,8.60
2019-05-01T18:31:02.941Z,9.63
2019-05-01T18:33:32.325Z,10.40
2019-05-01T18:36:01.785Z,9.70
2019-05-01T18:38:42.870Z,10.37
2019-05-01T18:41:18.300Z,10.13
2019-05-01T18:43:47.792Z,12.33
2019-05-01T18:46:17.265Z,11.60
2019-05-01T18:48:46.652Z,11.67
2019-05-01T18:51:16.423Z,11.67
2019-05-01T18:53:46.002Z,12.73
2019-05-01T18:56:15.380Z,10.53
2019-05-01T18:58:44.760Z,9.90
2019-05-01T19:01:14.131Z,10.40
2019-05-01T19:03:44.206Z,10.13
2019-05-01T19:06:13.668Z,8.80
2019-05-01T19:08:43.052Z,9.90
2019-05-01T19:11:13.306Z,9.57
2019-05-01T19:13:42.888Z,9.40
2019-05-01T19:16:12.456Z,10.90
2019-05-01T19:18:41.947Z,10.63
2019-05-01T19:21:11.328Z,10.23
2019-05-01T19:23:40.731Z,9.80
2019-05-01T19:26:10.668Z,11.60
2019-05-01T19:28:40.064Z,10.53
2019-05-01T19:31:09.448Z,10.17
2019-05-01T19:33:41.681Z,11.40
2019-05-01T19:36:10.372Z,10.37
2019-05-01T19:38:39.916Z,9.20
2019-05-01T19:41:13.930Z,10.93
2019-05-01T19:43:42.026Z,11.03
2019-05-01T19:46:11.364Z,11.20
2019-05-01T19:48:45.384Z,10.93
2019-05-01T19:51:11.750Z,10.27
2019-05-01T19:53:41.132Z,10.53
2019-05-01T19:56:10.493Z,10.10
2019-05-01T19:58:39.872Z,11.20
2019-05-01T20:01:09.285Z,11.93
2019-05-01T20:03:38.741Z,9.20
2019-05-01T20:06:08.398Z,10.73
2019-05-01T20:08:37.839Z,10.77
2019-05-01T20:11:09.595Z,10.90
2019-05-01T20:13:38.212Z,10.83
2019-05-01T20:16:08.569Z,12.27
2019-05-01T20:18:37.942Z,11.50
2019-05-01T20:21:07.342Z,12.97
2019-05-01T20:23:36.733Z,10.90
2019-05-01T20:26:06.081Z,11.50
2019-05-01T20:28:37.227Z,10.40
2019-05-01T20:31:06.501Z,12.60
2019-05-01T20:33:38.622Z,12.43
2019-05-01T20:36:07.383Z,11.10
2019-05-01T20:38:36.747Z,10.93
2019-05-01T20:41:10.302Z,12.30
2019-05-01T20:43:38.242Z,10.60
2019-05-01T20:46:08.154Z,14.23
2019-05-01T20:48:37.518Z,11.73
2019-05-01T20:51:06.900Z,11.70
2019-05-01T20:53:36.252Z,12.03
2019-05-01T20:56:24.595Z,11.30
2019-05-01T20:58:57.685Z,12.93
2019-05-01T21:01:28.301Z,11.57
2019-05-01T21:04:04.833Z,12.90
2019-05-01T21:06:39.065Z,11.10
2019-05-01T21:09:13.745Z,12.13
2019-05-01T21:11:47.259Z,12.30
2019-05-01T21:14:22.284Z,14.33
2019-05-01T21:16:47.978Z,12.67
2019-05-01T21:19:17.323Z,12.70
2019-05-01T21:21:46.692Z,11.90
2019-05-01T21:24:16.277Z,11.43
2019-05-01T21:26:45.867Z,11.00
2019-05-01T21:29:15.416Z,12.17
2019-05-01T21:31:44.772Z,10.17
2019-05-01T21:34:14.697Z,11.53
2019-05-01T21:36:47.541Z,12.13
2019-05-01T21:39:17.412Z,11.43
2019-05-01T21:41:46.132Z,11.67
2019-05-01T21:44:15.484Z,11.43
2019-05-01T21:46:44.856Z,11.60
2019-05-01T21:49:14.208Z,10.70
2019-05-01T21:51:46.021Z,11.40
2019-05-01T21:54:15.891Z,11.67
2019-05-01T21:56:45.700Z,12.60
2019-05-01T21:59:15.149Z,9.93
2019-05-01T22:01:44.541Z,11.40
2019-05-01T22:04:13.988Z,9.70
2019-05-01T22:06:46.845Z,10.90
2019-05-01T22:09:19.893Z,10.53
2019-05-01T22:11:49.768Z,11.63
2019-05-01T22:14:40.452Z,11.80
2019-05-01T22:17:16.744Z,11.10
2019-05-01T22:19:46.091Z,13.77
2019-05-01T22:22:38.723Z,13.43
2019-05-01T22:25:25.530Z,13.53
2019-05-01T22:28:01.151Z,12.07
2019-05-01T22:30:35.387Z,10.47
2019-05-01T22:33:05.181Z,11.00
2019-05-01T22:35:37.183Z,10.70
2019-05-01T22:38:08.065Z,11.00
2019-05-01T22:41:07.136Z,10.57
2019-05-01T22:43:36.838Z,10.47
2019-05-01T22:46:08.032Z,10.20
2019-05-01T22:48:37.392Z,10.13
2019-05-01T22:51:12.684Z,10.60
2019-05-01T22:53:42.080Z,13.23
2019-05-01T22:56:11.456Z,11.60
2019-05-01T22:58:40.812Z,11.30
2019-05-01T23:01:13.404Z,12.07
2019-05-01T23:03:49.312Z,14.47
2019-05-01T23:06:19.031Z,11.67
2019-05-01T23:08:48.451Z,10.53
2019-05-01T23:11:20.210Z,9.60
2019-05-01T23:13:49.039Z,10.00
2019-05-01T23:16:20.275Z,8.73
2019-05-01T23:18:51.927Z,10.20
2019-05-01T23:21:20.635Z,8.90
2019-05-01T23:23:50.065Z,11.97
2019-05-01T23:26:19.428Z,9.40
2019-05-01T23:28:48.831Z,8.30
2019-05-01T23:31:18.500Z,10.43
2019-05-01T23:33:50.584Z,9.50
2019-05-01T23:36:23.665Z,10.60
2019-05-01T23:38:49.927Z,11.90
2019-05-01T23:41:24.862Z,12.50
2019-05-01T23:43:50.345Z,13.30
2019-05-01T23:46:19.709Z,13.57
2019-05-01T23:48:49.101Z,10.00
2019-05-01T23:51:18.473Z,10.03
2019-05-01T23:53:48.513Z,9.30
2019-05-01T23:56:18.841Z,9.20
2019-05-01T23:58:48.224Z,8.87
